sensor_id;sensor_type;location;lat;lon;timestamp;pressure;altitude;pressure_sealevel;temperature;humidity
57572;BME280;44459;43.522;24.470;2023-04-29T00:01:32;100373.69;;;5.49;99.69
57572;BME280;44459;43.522;24.470;2023-04-29T00:03:58;100372.78;;;5.47;99.96
57572;BME280;44459;43.522;24.470;2023-04-29T00:06:23;100365.69;;;5.43;99.04
57572;BME280;44459;43.522;24.470;2023-04-29T00:08:49;100368.34;;;5.44;99.44
57572;BME280;44459;43.522;24.470;2023-04-29T00:11:16;100365.66;;;5.41;99.78
57572;BME280;44459;43.522;24.470;2023-04-29T00:13:41;100361.28;;;5.42;100.00
57572;BME280;44459;43.522;24.470;2023-04-29T00:16:07;100352.44;;;5.37;100.00
57572;BME280;44459;43.522;24.470;2023-04-29T00:18:36;100361.16;;;5.37;100.00
57572;BME280;44459;43.522;24.470;2023-04-29T00:21:02;100353.22;;;5.34;100.00
57572;BME280;44459;43.522;24.470;2023-04-29T00:23:31;100348.00;;;5.34;100.00
57572;BME280;44459;43.522;24.470;2023-04-29T00:25:56;100350.56;;;5.33;100.00
57572;BME280;44459;43.522;24.470;2023-04-29T00:28:22;100350.63;;;5.36;100.00
57572;BME280;44459;43.522;24.470;2023-04-29T00:30:47;100336.63;;;5.34;100.00
57572;BME280;44459;43.522;24.470;2023-04-29T00:33:12;100334.84;;;5.33;100.00
57572;BME280;44459;43.522;24.470;2023-04-29T00:35:38;100347.19;;;5.37;100.00
57572;BME280;44459;43.522;24.470;2023-04-29T00:38:03;100343.75;;;5.38;100.00
57572;BME280;44459;43.522;24.470;2023-04-29T00:40:29;100341.06;;;5.36;100.00
57572;BME280;44459;43.522;24.470;2023-04-29T00:42:55;100340.91;;;5.30;100.00
57572;BME280;44459;43.522;24.470;2023-04-29T00:45:21;100342.66;;;5.31;100.00
57572;BME280;44459;43.522;24.470;2023-04-29T00:47:47;100340.00;;;5.30;100.00
57572;BME280;44459;43.522;24.470;2023-04-29T00:50:12;100344.34;;;5.29;100.00
57572;BME280;44459;43.522;24.470;2023-04-29T00:52:38;100332.91;;;5.26;100.00
57572;BME280;44459;43.522;24.470;2023-04-29T00:55:06;100334.78;;;5.30;100.00
57572;BME280;44459;43.522;24.470;2023-04-29T00:57:32;100341.66;;;5.28;100.00
57572;BME280;44459;43.522;24.470;2023-04-29T00:59:59;100344.34;;;5.29;99.97
57572;BME280;44459;43.522;24.470;2023-04-29T01:02:24;100340.03;;;5.31;100.00
57572;BME280;44459;43.522;24.470;2023-04-29T01:04:51;100342.75;;;5.34;100.00
57572;BME280;44459;43.522;24.470;2023-04-29T01:07:20;100352.38;;;5.35;99.65
57572;BME280;44459;43.522;24.470;2023-04-29T01:10:09;100341.88;;;5.34;100.00
57572;BME280;44459;43.522;24.470;2023-04-29T01:15:27;100333.03;;;5.30;99.94
57572;BME280;44459;43.522;24.470;2023-04-29T01:18:04;100334.78;;;5.30;100.00
57572;BME280;44459;43.522;24.470;2023-04-29T01:20:34;100341.66;;;5.28;99.43
57572;BME280;44459;43.522;24.470;2023-04-29T01:23:02;100333.78;;;5.26;99.95
57572;BME280;44459;43.522;24.470;2023-04-29T01:25:28;100327.50;;;5.20;99.80
57572;BME280;44459;43.522;24.470;2023-04-29T01:43:27;100331.88;;;5.21;99.76
57572;BME280;44459;43.522;24.470;2023-04-29T01:45:55;100332.81;;;5.23;99.80
57572;BME280;44459;43.522;24.470;2023-04-29T01:48:20;100316.06;;;5.16;99.85
57572;BME280;44459;43.522;24.470;2023-04-29T01:50:46;100309.03;;;5.15;99.62
57572;BME280;44459;43.522;24.470;2023-04-29T01:53:12;100312.63;;;5.17;99.64
57572;BME280;44459;43.522;24.470;2023-04-29T01:55:37;100313.47;;;5.18;99.67
57572;BME280;44459;43.522;24.470;2023-04-29T01:58:03;100310.00;;;5.17;99.59
57572;BME280;44459;43.522;24.470;2023-04-29T02:00:28;100303.91;;;5.18;99.45
57572;BME280;44459;43.522;24.470;2023-04-29T02:02:53;100307.41;;;5.19;99.64
57572;BME280;44459;43.522;24.470;2023-04-29T02:05:19;100310.09;;;5.22;99.21
57572;BME280;44459;43.522;24.470;2023-04-29T02:07:45;100316.16;;;5.21;98.59
57572;BME280;44459;43.522;24.470;2023-04-29T02:10:10;100310.91;;;5.19;98.87
57572;BME280;44459;43.522;24.470;2023-04-29T02:12:36;100322.34;;;5.23;98.43
57572;BME280;44459;43.522;24.470;2023-04-29T02:15:01;100320.56;;;5.22;98.42
57572;BME280;44459;43.522;24.470;2023-04-29T02:17:27;100318.91;;;5.24;98.72
57572;BME280;44459;43.522;24.470;2023-04-29T02:19:52;100308.28;;;5.19;99.05
57572;BME280;44459;43.522;24.470;2023-04-29T02:22:19;100314.34;;;5.18;98.82
57572;BME280;44459;43.522;24.470;2023-04-29T02:24:45;100322.19;;;5.17;97.97
57572;BME280;44459;43.522;24.470;2023-04-29T02:27:10;100333.63;;;5.20;97.92
57572;BME280;44459;43.522;24.470;2023-04-29T02:29:36;100339.72;;;5.21;98.00
57572;BME280;44459;43.522;24.470;2023-04-29T02:32:01;100333.22;;;5.06;98.70
57572;BME280;44459;43.522;24.470;2023-04-29T02:34:27;100330.06;;;4.88;100.00
57572;BME280;44459;43.522;24.470;2023-04-29T02:36:52;100332.09;;;4.98;100.00
57572;BME280;44459;43.522;24.470;2023-04-29T02:39:18;100334.00;;;5.04;99.96
57572;BME280;44459;43.522;24.470;2023-04-29T02:41:44;100332.19;;;5.01;99.92
57572;BME280;44459;43.522;24.470;2023-04-29T02:44:10;100333.75;;;4.96;100.00
57572;BME280;44459;43.522;24.470;2023-04-29T02:46:36;100334.63;;;4.95;100.00
57572;BME280;44459;43.522;24.470;2023-04-29T02:49:03;100332.09;;;4.98;100.00
57572;BME280;44459;43.522;24.470;2023-04-29T02:51:30;100328.78;;;5.04;100.00
57572;BME280;44459;43.522;24.470;2023-04-29T02:53:55;100329.84;;;5.11;100.00
57572;BME280;44459;43.522;24.470;2023-04-29T02:56:21;100344.75;;;5.13;100.00
57572;BME280;44459;43.522;24.470;2023-04-29T02:58:47;100342.81;;;5.07;100.00
57572;BME280;44459;43.522;24.470;2023-04-29T03:01:13;100345.41;;;5.06;100.00
57572;BME280;44459;43.522;24.470;2023-04-29T03:03:38;100346.47;;;5.13;100.00
57572;BME280;44459;43.522;24.470;2023-04-29T03:06:04;100349.25;;;5.17;100.00
57572;BME280;44459;43.522;24.470;2023-04-29T03:08:29;100345.69;;;5.15;100.00
57572;BME280;44459;43.522;24.470;2023-04-29T03:10:55;100352.47;;;5.08;100.00
57572;BME280;44459;43.522;24.470;2023-04-29T03:13:20;100362.31;;;5.17;100.00
57572;BME280;44459;43.522;24.470;2023-04-29T03:15:45;100359.78;;;5.20;100.00
57572;BME280;44459;43.522;24.470;2023-04-29T03:18:11;100364.94;;;5.17;100.00
57572;BME280;44459;43.522;24.470;2023-04-29T03:20:37;100359.47;;;5.10;100.00
57572;BME280;44459;43.522;24.470;2023-04-29T03:23:02;100363.97;;;5.14;100.00
57572;BME280;44459;43.522;24.470;2023-04-29T03:25:28;100368.38;;;5.16;100.00
57572;BME280;44459;43.522;24.470;2023-04-29T03:27:54;100364.13;;;5.20;100.00
57572;BME280;44459;43.522;24.470;2023-04-29T03:30:19;100372.97;;;5.23;100.00
57572;BME280;44459;43.522;24.470;2023-04-29T03:32:45;100376.59;;;5.28;100.00
57572;BME280;44459;43.522;24.470;2023-04-29T03:35:10;100373.88;;;5.25;100.00
57572;BME280;44459;43.522;24.470;2023-04-29T03:37:37;100376.81;;;5.36;100.00
57572;BME280;44459;43.522;24.470;2023-04-29T03:40:03;100370.00;;;5.41;100.00
57572;BME280;44459;43.522;24.470;2023-04-29T03:42:29;100370.97;;;5.44;100.00
57572;BME280;44459;43.522;24.470;2023-04-29T03:44:54;100371.06;;;5.49;100.00
57572;BME280;44459;43.522;24.470;2023-04-29T03:47:20;100368.66;;;5.55;100.00
57572;BME280;44459;43.522;24.470;2023-04-29T03:49:45;100366.97;;;5.57;100.00
57572;BME280;44459;43.522;24.470;2023-04-29T03:52:10;100371.44;;;5.61;100.00
57572;BME280;44459;43.522;24.470;2023-04-29T03:54:36;100367.13;;;5.63;100.00
57572;BME280;44459;43.522;24.470;2023-04-29T03:57:02;100373.38;;;5.68;100.00
57572;BME280;44459;43.522;24.470;2023-04-29T03:59:27;100364.78;;;5.72;100.00
57572;BME280;44459;43.522;24.470;2023-04-29T04:01:53;100365.78;;;5.77;100.00
57572;BME280;44459;43.522;24.470;2023-04-29T04:04:18;100365.06;;;5.83;100.00
57572;BME280;44459;43.522;24.470;2023-04-29T04:06:44;100366.06;;;5.86;100.00
57572;BME280;44459;43.522;24.470;2023-04-29T04:09:15;100366.16;;;5.91;100.00
57572;BME280;44459;43.522;24.470;2023-04-29T04:11:40;100372.31;;;5.91;100.00
57572;BME280;44459;43.522;24.470;2023-04-29T04:14:06;100377.53;;;5.90;100.00
57572;BME280;44459;43.522;24.470;2023-04-29T04:16:31;100378.50;;;5.95;100.00
57572;BME280;44459;43.522;24.470;2023-04-29T04:18:57;100380.50;;;6.03;100.00
57572;BME280;44459;43.522;24.470;2023-04-29T04:21:23;100380.59;;;6.08;100.00
57572;BME280;44459;43.522;24.470;2023-04-29T04:23:49;100375.50;;;6.13;100.00
57572;BME280;44459;43.522;24.470;2023-04-29T04:26:15;100384.59;;;6.27;99.97
57572;BME280;44459;43.522;24.470;2023-04-29T04:28:41;100383.13;;;6.38;100.00
57572;BME280;44459;43.522;24.470;2023-04-29T04:31:06;100378.25;;;6.53;100.00
57572;BME280;44459;43.522;24.470;2023-04-29T04:33:32;100380.25;;;6.63;100.00
57572;BME280;44459;43.522;24.470;2023-04-29T04:35:58;100380.63;;;6.78;100.00
57572;BME280;44459;43.522;24.470;2023-04-29T04:38:24;100373.13;;;6.95;100.00
57572;BME280;44459;43.522;24.470;2023-04-29T04:40:50;100377.88;;;7.11;100.00
57572;BME280;44459;43.522;24.470;2023-04-29T04:43:16;100372.16;;;7.29;99.55
57572;BME280;44459;43.522;24.470;2023-04-29T04:45:42;100374.25;;;7.46;99.04
57572;BME280;44459;43.522;24.470;2023-04-29T04:48:07;100369.50;;;7.71;99.51
57572;BME280;44459;43.522;24.470;2023-04-29T04:50:32;100369.69;;;7.80;98.44
57572;BME280;44459;43.522;24.470;2023-04-29T04:52:58;100373.53;;;7.97;97.22
57572;BME280;44459;43.522;24.470;2023-04-29T04:55:23;100367.63;;;8.08;95.65
57572;BME280;44459;43.522;24.470;2023-04-29T04:57:49;100370.50;;;8.24;92.57
57572;BME280;44459;43.522;24.470;2023-04-29T05:00:15;100367.19;;;8.34;91.91
57572;BME280;44459;43.522;24.470;2023-04-29T05:02:41;100366.47;;;8.44;91.97
57572;BME280;44459;43.522;24.470;2023-04-29T05:05:07;100361.28;;;8.47;89.25
57572;BME280;44459;43.522;24.470;2023-04-29T05:07:33;100366.63;;;8.51;88.41
57572;BME280;44459;43.522;24.470;2023-04-29T05:10:02;100359.75;;;8.61;90.21
57572;BME280;44459;43.522;24.470;2023-04-29T05:12:28;100365.13;;;8.67;91.19
57572;BME280;44459;43.522;24.470;2023-04-29T05:14:55;100360.03;;;8.79;89.62
57572;BME280;44459;43.522;24.470;2023-04-29T05:17:21;100367.31;;;8.95;88.35
57572;BME280;44459;43.522;24.470;2023-04-29T05:19:46;100357.03;;;9.12;87.42
57572;BME280;44459;43.522;24.470;2023-04-29T05:22:12;100360.59;;;9.16;88.03
57572;BME280;44459;43.522;24.470;2023-04-29T05:24:37;100365.16;;;9.29;86.54
57572;BME280;44459;43.522;24.470;2023-04-29T05:27:02;100373.16;;;9.38;86.46
57572;BME280;44459;43.522;24.470;2023-04-29T05:29:29;100370.50;;;9.35;86.95
57572;BME280;44459;43.522;24.470;2023-04-29T05:31:54;100373.13;;;9.35;85.92
57572;BME280;44459;43.522;24.470;2023-04-29T05:34:19;100372.22;;;9.33;87.77
57572;BME280;44459;43.522;24.470;2023-04-29T05:36:45;100371.34;;;9.34;88.92
57572;BME280;44459;43.522;24.470;2023-04-29T05:39:10;100372.31;;;9.39;86.62
57572;BME280;44459;43.522;24.470;2023-04-29T05:41:36;100356.69;;;9.55;88.82
57572;BME280;44459;43.522;24.470;2023-04-29T05:44:01;100362.28;;;9.83;87.03
57572;BME280;44459;43.522;24.470;2023-04-29T05:46:27;100357.47;;;10.22;86.79
57572;BME280;44459;43.522;24.470;2023-04-29T05:48:52;100357.75;;;10.54;83.97
57572;BME280;44459;43.522;24.470;2023-04-29T05:51:18;100359.59;;;10.67;82.47
57572;BME280;44459;43.522;24.470;2023-04-29T05:53:44;100361.28;;;10.57;82.85
57572;BME280;44459;43.522;24.470;2023-04-29T05:56:09;100362.25;;;10.67;82.76
57572;BME280;44459;43.522;24.470;2023-04-29T05:58:35;100363.16;;;10.72;78.28
57572;BME280;44459;43.522;24.470;2023-04-29T06:01:01;100358.75;;;10.71;79.37
57572;BME280;44459;43.522;24.470;2023-04-29T06:03:27;100354.44;;;10.82;81.67
57572;BME280;44459;43.522;24.470;2023-04-29T06:05:52;100354.53;;;11.00;80.40
57572;BME280;44459;43.522;24.470;2023-04-29T06:08:18;100352.00;;;11.16;80.42
57572;BME280;44459;43.522;24.470;2023-04-29T06:10:44;100358.28;;;11.34;79.98
57572;BME280;44459;43.522;24.470;2023-04-29T06:13:10;100355.66;;;11.40;78.11
57572;BME280;44459;43.522;24.470;2023-04-29T06:15:36;100355.69;;;11.48;74.07
57572;BME280;44459;43.522;24.470;2023-04-29T06:18:01;100355.72;;;11.54;78.00
57572;BME280;44459;43.522;24.470;2023-04-29T06:20:27;100364.56;;;11.67;77.55
57572;BME280;44459;43.522;24.470;2023-04-29T06:22:53;100357.56;;;11.73;74.86
57572;BME280;44459;43.522;24.470;2023-04-29T06:25:18;100362.00;;;11.82;75.72
57572;BME280;44459;43.522;24.470;2023-04-29T06:27:43;100352.31;;;11.88;75.03
57572;BME280;44459;43.522;24.470;2023-04-29T06:30:09;100367.34;;;11.98;75.78
57572;BME280;44459;43.522;24.470;2023-04-29T06:32:36;100360.28;;;11.91;73.16
57572;BME280;44459;43.522;24.470;2023-04-29T06:35:02;100348.75;;;11.71;73.87
57572;BME280;44459;43.522;24.470;2023-04-29T06:37:28;100353.97;;;11.67;74.71
57572;BME280;44459;43.522;24.470;2023-04-29T06:39:53;100355.84;;;11.80;75.57
57572;BME280;44459;43.522;24.470;2023-04-29T06:42:19;100362.81;;;11.67;73.84
57572;BME280;44459;43.522;24.470;2023-04-29T06:44:44;100363.78;;;11.83;74.37
57572;BME280;44459;43.522;24.470;2023-04-29T06:47:10;100358.53;;;11.99;73.12
57572;BME280;44459;43.522;24.470;2023-04-29T06:49:35;100356.81;;;12.18;73.20
57572;BME280;44459;43.522;24.470;2023-04-29T06:52:01;100350.66;;;12.57;75.55
57572;BME280;44459;43.522;24.470;2023-04-29T06:54:27;100343.56;;;12.82;72.30
57572;BME280;44459;43.522;24.470;2023-04-29T06:56:53;100347.13;;;12.79;71.07
57572;BME280;44459;43.522;24.470;2023-04-29T06:59:18;100343.56;;;12.85;73.92
57572;BME280;44459;43.522;24.470;2023-04-29T07:01:43;100343.59;;;12.73;72.54
57572;BME280;44459;43.522;24.470;2023-04-29T07:04:09;100347.09;;;12.81;70.84
57572;BME280;44459;43.522;24.470;2023-04-29T07:06:34;100346.19;;;13.07;73.34
57572;BME280;44459;43.522;24.470;2023-04-29T07:09:01;100347.06;;;13.06;71.56
57572;BME280;44459;43.522;24.470;2023-04-29T07:11:26;100344.41;;;13.22;71.38
57572;BME280;44459;43.522;24.470;2023-04-29T07:13:52;100342.63;;;13.25;71.94
57572;BME280;44459;43.522;24.470;2023-04-29T07:16:17;100344.34;;;13.43;70.54
57572;BME280;44459;43.522;24.470;2023-04-29T07:18:44;100349.44;;;13.82;72.92
57572;BME280;44459;43.522;24.470;2023-04-29T07:21:10;100340.41;;;14.13;68.64
57572;BME280;44459;43.522;24.470;2023-04-29T07:23:35;100334.09;;;14.39;69.24
57572;BME280;44459;43.522;24.470;2023-04-29T07:26:19;100343.59;;;14.67;68.35
57572;BME280;44459;43.522;24.470;2023-04-29T07:28:47;100343.53;;;14.72;64.77
57572;BME280;44459;43.522;24.470;2023-04-29T07:31:12;100344.38;;;14.77;64.06
57572;BME280;44459;43.522;24.470;2023-04-29T07:33:38;100342.72;;;14.62;62.80
57572;BME280;44459;43.522;24.470;2023-04-29T07:36:04;100345.38;;;14.62;64.34
57572;BME280;44459;43.522;24.470;2023-04-29T07:38:31;100348.84;;;14.73;60.78
57572;BME280;44459;43.522;24.470;2023-04-29T07:40:56;100348.75;;;14.82;62.51
57572;BME280;44459;43.522;24.470;2023-04-29T07:43:22;100345.25;;;14.80;61.60
57572;BME280;44459;43.522;24.470;2023-04-29T07:45:47;100344.09;;;15.05;60.19
57572;BME280;44459;43.522;24.470;2023-04-29T07:48:13;100343.22;;;15.03;60.95
57572;BME280;44459;43.522;24.470;2023-04-29T07:50:38;100338.56;;;15.25;65.20
57572;BME280;44459;43.522;24.470;2023-04-29T07:53:04;100344.66;;;15.35;59.75
57572;BME280;44459;43.522;24.470;2023-04-29T07:55:30;100336.94;;;15.12;59.76
57572;BME280;44459;43.522;24.470;2023-04-29T07:57:56;100334.81;;;15.43;59.83
57572;BME280;44459;43.522;24.470;2023-04-29T08:00:22;100321.38;;;15.56;60.67
57572;BME280;44459;43.522;24.470;2023-04-29T08:02:54;100328.97;;;15.85;57.85
57572;BME280;44459;43.522;24.470;2023-04-29T08:05:20;100319.03;;;15.98;56.22
57572;BME280;44459;43.522;24.470;2023-04-29T08:07:49;100324.88;;;16.21;55.59
57572;BME280;44459;43.522;24.470;2023-04-29T08:10:16;100324.31;;;16.59;54.03
57572;BME280;44459;43.522;24.470;2023-04-29T08:12:45;100315.91;;;16.83;55.52
57572;BME280;44459;43.522;24.470;2023-04-29T08:15:11;100306.63;;;17.02;53.59
57572;BME280;44459;43.522;24.470;2023-04-29T08:17:36;100308.13;;;17.17;52.07
57572;BME280;44459;43.522;24.470;2023-04-29T08:20:02;100311.06;;;17.03;50.73
57572;BME280;44459;43.522;24.470;2023-04-29T08:22:27;100304.31;;;17.30;51.47
57572;BME280;44459;43.522;24.470;2023-04-29T08:24:53;100314.63;;;17.48;51.27
57572;BME280;44459;43.522;24.470;2023-04-29T08:27:18;100304.09;;;17.39;50.59
57572;BME280;44459;43.522;24.470;2023-04-29T08:29:45;100302.88;;;17.58;49.56
57572;BME280;44459;43.522;24.470;2023-04-29T08:32:11;100300.16;;;17.60;51.14
57572;BME280;44459;43.522;24.470;2023-04-29T08:34:37;100300.06;;;17.65;49.91
57572;BME280;44459;43.522;24.470;2023-04-29T08:37:02;100296.97;;;17.41;47.16
57572;BME280;44459;43.522;24.470;2023-04-29T08:39:28;100301.69;;;17.70;43.88
57572;BME280;44459;43.522;24.470;2023-04-29T08:41:57;100299.56;;;17.87;42.33
57572;BME280;44459;43.522;24.470;2023-04-29T08:44:25;100301.06;;;17.99;43.13
57572;BME280;44459;43.522;24.470;2023-04-29T08:46:51;100294.50;;;18.14;46.21
57572;BME280;44459;43.522;24.470;2023-04-29T08:49:17;100302.81;;;18.37;47.57
57572;BME280;44459;43.522;24.470;2023-04-29T08:51:42;100290.13;;;18.46;41.95
57572;BME280;44459;43.522;24.470;2023-04-29T08:54:08;100291.84;;;18.49;43.54
57572;BME280;44459;43.522;24.470;2023-04-29T08:56:33;100291.78;;;18.52;45.30
57572;BME280;44459;43.522;24.470;2023-04-29T08:59:01;100291.47;;;18.64;41.89
57572;BME280;44459;43.522;24.470;2023-04-29T09:01:27;100291.06;;;18.79;40.69
57572;BME280;44459;43.522;24.470;2023-04-29T09:04:14;100300.16;;;19.06;41.02
57572;BME280;44459;43.522;24.470;2023-04-29T09:06:46;100288.66;;;19.33;42.74
57572;BME280;44459;43.522;24.470;2023-04-29T09:09:12;100275.72;;;19.50;40.77
57572;BME280;44459;43.522;24.470;2023-04-29T09:11:39;100297.72;;;19.29;38.29
57572;BME280;44459;43.522;24.470;2023-04-29T09:14:05;100287.03;;;18.97;41.46
57572;BME280;44459;43.522;24.470;2023-04-29T09:16:32;100277.56;;;18.50;38.33
57572;BME280;44459;43.522;24.470;2023-04-29T09:18:57;100285.59;;;18.48;40.84
57572;BME280;44459;43.522;24.470;2023-04-29T09:21:27;100287.09;;;18.25;42.25
57572;BME280;44459;43.522;24.470;2023-04-29T09:23:57;100283.53;;;18.24;38.01
57572;BME280;44459;43.522;24.470;2023-04-29T09:26:23;100266.72;;;18.19;38.27
57572;BME280;44459;43.522;24.470;2023-04-29T09:29:06;100270.50;;;18.10;39.49
57572;BME280;44459;43.522;24.470;2023-04-29T09:31:33;100266.69;;;18.22;37.68
57572;BME280;44459;43.522;24.470;2023-04-29T09:33:59;100262.13;;;18.61;41.92
57572;BME280;44459;43.522;24.470;2023-04-29T09:39:18;100252.91;;;19.05;38.70
57572;BME280;44459;43.522;24.470;2023-04-29T09:44:27;100244.72;;;19.11;38.97
57572;BME280;44459;43.522;24.470;2023-04-29T09:47:05;100245.88;;;19.32;39.38
57572;BME280;44459;43.522;24.470;2023-04-29T09:49:33;100246.00;;;19.58;39.25
57572;BME280;44459;43.522;24.470;2023-04-29T09:52:04;100242.41;;;19.59;37.21
57572;BME280;44459;43.522;24.470;2023-04-29T09:54:32;100248.69;;;19.58;38.40
57572;BME280;44459;43.522;24.470;2023-04-29T09:56:59;100238.63;;;19.66;39.21
57572;BME280;44459;43.522;24.470;2023-04-29T09:59:26;100245.97;;;19.29;37.09
57572;BME280;44459;43.522;24.470;2023-04-29T10:01:56;100241.16;;;19.10;35.14
57572;BME280;44459;43.522;24.470;2023-04-29T10:04:25;100222.22;;;19.17;37.83
57572;BME280;44459;43.522;24.470;2023-04-29T10:06:55;100229.91;;;19.59;39.58
57572;BME280;44459;43.522;24.470;2023-04-29T10:09:21;100227.97;;;19.92;37.83
57572;BME280;44459;43.522;24.470;2023-04-29T10:11:49;100219.22;;;20.14;38.78
57572;BME280;44459;43.522;24.470;2023-04-29T10:14:19;100214.75;;;20.14;38.37
57572;BME280;44459;43.522;24.470;2023-04-29T10:19:17;100221.44;;;19.44;36.38
57572;BME280;44459;43.522;24.470;2023-04-29T10:21:43;100217.75;;;19.48;37.03
57572;BME280;44459;43.522;24.470;2023-04-29T10:24:10;100206.81;;;19.55;37.69
57572;BME280;44459;43.522;24.470;2023-04-29T10:26:38;100209.50;;;19.55;36.33
57572;BME280;44459;43.522;24.470;2023-04-29T10:29:06;100200.78;;;19.77;37.50
57572;BME280;44459;43.522;24.470;2023-04-29T10:31:33;100207.06;;;20.03;36.62
57572;BME280;44459;43.522;24.470;2023-04-29T10:33:59;100198.41;;;20.22;40.69
57572;BME280;44459;43.522;24.470;2023-04-29T10:36:26;100198.13;;;20.31;36.39
57572;BME280;44459;43.522;24.470;2023-04-29T10:38:56;100199.59;;;20.41;35.66
57572;BME280;44459;43.522;24.470;2023-04-29T10:41:26;100187.69;;;20.48;32.08
57572;BME280;44459;43.522;24.470;2023-04-29T10:43:53;100189.56;;;20.46;35.48
57572;BME280;44459;43.522;24.470;2023-04-29T10:46:23;100188.63;;;20.47;35.52
57572;BME280;44459;43.522;24.470;2023-04-29T10:48:59;100185.47;;;20.61;34.98
57572;BME280;44459;43.522;24.470;2023-04-29T10:51:28;100188.84;;;20.66;33.26
57572;BME280;44459;43.522;24.470;2023-04-29T10:54:02;100195.72;;;20.97;38.14
57572;BME280;44459;43.522;24.470;2023-04-29T10:56:39;100186.53;;;21.28;34.36
57572;BME280;44459;43.522;24.470;2023-04-29T10:59:08;100187.91;;;21.16;30.41
57572;BME280;44459;43.522;24.470;2023-04-29T11:01:42;100179.81;;;20.93;35.89
57572;BME280;44459;43.522;24.470;2023-04-29T11:04:09;100172.97;;;21.07;33.15
57572;BME280;44459;43.522;24.470;2023-04-29T11:09:03;100174.84;;;20.82;34.75
57572;BME280;44459;43.522;24.470;2023-04-29T11:14:14;100162.94;;;20.14;34.78
57572;BME280;44459;43.522;24.470;2023-04-29T11:16:55;100156.34;;;19.71;32.58
57572;BME280;44459;43.522;24.470;2023-04-29T11:27:18;100155.91;;;19.57;34.55
57572;BME280;44459;43.522;24.470;2023-04-29T11:29:45;100145.22;;;19.55;36.58
57572;BME280;44459;43.522;24.470;2023-04-29T11:32:13;100157.38;;;19.67;34.71
57572;BME280;44459;43.522;24.470;2023-04-29T11:34:39;100150.34;;;19.34;34.04
57572;BME280;44459;43.522;24.470;2023-04-29T11:37:04;100155.69;;;19.34;35.12
57572;BME280;44459;43.522;24.470;2023-04-29T11:39:35;100150.16;;;19.40;35.65
57572;BME280;44459;43.522;24.470;2023-04-29T11:42:07;100151.06;;;19.11;33.03
57572;BME280;44459;43.522;24.470;2023-04-29T11:44:36;100142.06;;;19.43;32.89
57572;BME280;44459;43.522;24.470;2023-04-29T11:47:03;100138.81;;;19.87;33.05
57572;BME280;44459;43.522;24.470;2023-04-29T11:49:32;100140.34;;;20.21;34.71
57572;BME280;44459;43.522;24.470;2023-04-29T11:51:58;100138.81;;;20.40;33.42
57572;BME280;44459;43.522;24.470;2023-04-29T11:54:25;100140.94;;;20.55;36.45
57572;BME280;44459;43.522;24.470;2023-04-29T11:56:53;100129.25;;;20.57;35.83
57572;BME280;44459;43.522;24.470;2023-04-29T11:59:19;100135.91;;;20.46;34.36
57572;BME280;44459;43.522;24.470;2023-04-29T12:01:45;100120.22;;;20.09;33.84
57572;BME280;44459;43.522;24.470;2023-04-29T12:04:10;100128.38;;;20.32;38.33
57572;BME280;44459;43.522;24.470;2023-04-29T12:06:36;100121.81;;;20.41;34.65
57572;BME280;44459;43.522;24.470;2023-04-29T12:09:01;100119.81;;;20.46;35.99
57572;BME280;44459;43.522;24.470;2023-04-29T12:11:29;100114.19;;;20.29;35.64
57572;BME280;44459;43.522;24.470;2023-04-29T12:13:56;100113.69;;;20.42;37.94
57572;BME280;44459;43.522;24.470;2023-04-29T12:16:21;100112.94;;;20.39;36.06
57572;BME280;44459;43.522;24.470;2023-04-29T12:18:49;100122.28;;;20.27;36.38
57572;BME280;44459;43.522;24.470;2023-04-29T12:21:15;100115.53;;;20.16;35.00
57572;BME280;44459;43.522;24.470;2023-04-29T12:23:41;100115.25;;;20.23;36.96
57572;BME280;44459;43.522;24.470;2023-04-29T12:26:07;100124.50;;;19.88;35.10
57572;BME280;44459;43.522;24.470;2023-04-29T12:28:33;100114.81;;;19.84;37.65
57572;BME280;44459;43.522;24.470;2023-04-29T12:30:59;100113.91;;;19.85;36.29
57572;BME280;44459;43.522;24.470;2023-04-29T12:33:27;100109.69;;;19.78;36.33
57572;BME280;44459;43.522;24.470;2023-04-29T12:35:55;100111.50;;;19.50;35.50
57572;BME280;44459;43.522;24.470;2023-04-29T12:40:47;100119.56;;;18.91;37.66
57572;BME280;44459;43.522;24.470;2023-04-29T12:46:25;100114.72;;;18.73;38.01
57572;BME280;44459;43.522;24.470;2023-04-29T12:48:52;100118.16;;;18.46;38.89
57572;BME280;44459;43.522;24.470;2023-04-29T12:51:17;100116.72;;;18.33;37.13
57572;BME280;44459;43.522;24.470;2023-04-29T12:53:42;100108.72;;;18.65;37.97
57572;BME280;44459;43.522;24.470;2023-04-29T12:56:10;100104.84;;;18.75;38.12
57572;BME280;44459;43.522;24.470;2023-04-29T12:58:37;100101.66;;;18.92;38.04
57572;BME280;44459;43.522;24.470;2023-04-29T13:01:02;100105.69;;;19.06;37.30
57572;BME280;44459;43.522;24.470;2023-04-29T13:03:28;100107.25;;;19.14;37.35
57572;BME280;44459;43.522;24.470;2023-04-29T13:05:53;100097.88;;;19.28;37.23
57572;BME280;44459;43.522;24.470;2023-04-29T13:08:19;100100.41;;;19.33;38.63
57572;BME280;44459;43.522;24.470;2023-04-29T13:10:45;100098.84;;;19.26;38.96
57572;BME280;44459;43.522;24.470;2023-04-29T13:13:10;100091.94;;;19.19;39.95
57572;BME280;44459;43.522;24.470;2023-04-29T13:15:36;100091.28;;;19.10;37.85
57572;BME280;44459;43.522;24.470;2023-04-29T13:18:03;100091.13;;;18.87;37.89
57572;BME280;44459;43.522;24.470;2023-04-29T13:20:29;100080.00;;;18.72;38.41
57572;BME280;44459;43.522;24.470;2023-04-29T13:22:54;100088.78;;;18.77;39.99
57572;BME280;44459;43.522;24.470;2023-04-29T13:25:20;100088.66;;;18.49;38.07